Time;durP1;ratioP1;P1;durP2;ratioP2;P2;SDS_P1;SDS_P2;PMS_P1;PMS_P2;Temp;Humidity;BMP_temperature;BMP_pressure;BME280_temperature;BME280_humidity;BME280_pressure;Samples;Min_cycle;Max_cycle;Signal;HPM_P1;HPM_P2
2022/12/29 00:00:09;;;;;;;61.63;37.80;;;2.80;99.90;;;;;;5053160;28;20032;-73
2022/12/29 00:02:41;;;;;;;58.08;38.10;;;2.80;99.90;;;;;;5052962;28;20546;-71
2022/12/29 00:05:07;;;;;;;73.72;46.95;;;2.70;99.90;;;;;;5052260;28;20046;-73
2022/12/29 00:07:33;;;;;;;63.15;42.70;;;2.60;99.90;;;;;;5053046;28;20021;-73
2022/12/29 00:09:59;;;;;;;55.15;35.63;;;2.60;99.90;;;;;;5053158;28;20021;-74
2022/12/29 00:15:36;;;;;;;53.15;37.10;;;2.50;99.90;;;;;;5052740;28;20025;-73
2022/12/29 00:17:55;;;;;;;51.70;36.08;;;2.50;99.90;;;;;;5053107;28;20040;-73
2022/12/29 00:36:47;;;;;;;78.57;49.10;;;2.50;99.90;;;;;;5034422;28;20021;-75
2022/12/29 00:44:51;;;;;;;104.03;65.78;;;2.30;99.90;;;;;;5055218;28;20040;-73
2022/12/29 00:47:17;;;;;;;103.00;65.05;;;2.30;99.90;;;;;;5056624;28;20029;-72
2022/12/29 00:49:43;;;;;;;139.68;83.40;;;2.30;99.90;;;;;;5052341;28;20458;-74
2022/12/29 00:52:11;;;;;;;151.70;91.00;;;2.30;99.90;;;;;;5029888;28;20037;-74
2022/12/29 00:54:38;;;;;;;132.32;81.75;;;2.30;99.90;;;;;;5052794;28;20400;-74
2022/12/29 00:57:06;;;;;;;130.18;84.63;;;2.30;99.90;;;;;;5029678;28;20030;-74
2022/12/29 00:59:34;;;;;;;129.77;80.88;;;2.30;99.90;;;;;;5037534;28;20120;-74
2022/12/29 01:02:00;;;;;;;117.57;75.65;;;2.40;99.90;;;;;;5026958;28;20523;-74
2022/12/29 01:04:27;;;;;;;113.55;70.07;;;2.40;99.90;;;;;;5055530;28;20032;-73
2022/12/29 01:06:53;;;;;;;109.60;71.82;;;2.40;99.90;;;;;;5056290;28;20138;-72
2022/12/29 01:12:05;;;;;;;124.90;75.65;;;2.40;99.90;;;;;;5056174;28;20381;-74
2022/12/29 01:14:31;;;;;;;138.93;81.22;;;2.40;99.90;;;;;;5051015;28;20033;-74
2022/12/29 01:16:57;;;;;;;131.27;79.80;;;2.40;99.90;;;;;;5038132;28;21528;-73
2022/12/29 01:19:24;;;;;;;125.82;81.72;;;2.40;99.90;;;;;;5055861;28;20029;-75
2022/12/29 01:21:50;;;;;;;121.85;75.85;;;2.40;99.90;;;;;;5055809;28;20053;-74
2022/12/29 01:24:18;;;;;;;126.10;82.65;;;2.40;99.90;;;;;;5055650;28;20499;-73
2022/12/29 01:26:43;;;;;;;155.35;98.60;;;2.40;99.90;;;;;;5037653;28;20033;-74
2022/12/29 01:29:09;;;;;;;144.82;90.85;;;2.40;99.90;;;;;;5050287;28;20087;-73
2022/12/29 01:31:36;;;;;;;112.70;70.93;;;2.50;99.90;;;;;;5037990;28;20076;-73
2022/12/29 01:34:02;;;;;;;128.73;81.07;;;2.50;99.90;;;;;;5054947;28;20461;-75
2022/12/29 01:36:27;;;;;;;103.32;60.13;;;2.50;99.90;;;;;;5055222;28;20108;-75
2022/12/29 01:38:53;;;;;;;90.68;53.00;;;2.50;99.90;;;;;;5055374;28;20106;-74
2022/12/29 01:41:20;;;;;;;67.00;45.47;;;2.50;99.90;;;;;;5055596;28;20025;-74
2022/12/29 01:43:56;;;;;;;85.22;50.13;;;2.50;99.90;;;;;;5037517;28;20020;-73
2022/12/29 01:46:47;;;;;;;62.60;40.22;;;2.40;99.90;;;;;;5035650;28;20027;-73
2022/12/29 01:49:21;;;;;;;59.00;38.40;;;2.50;99.90;;;;;;5046917;28;20067;-73
2022/12/29 01:51:52;;;;;;;58.65;38.45;;;2.50;99.90;;;;;;5054314;28;20067;-73
2022/12/29 01:54:26;;;;;;;64.18;42.38;;;2.60;99.90;;;;;;5037045;28;20033;-73
2022/12/29 01:56:56;;;;;;;91.35;61.90;;;2.60;99.90;;;;;;5055354;28;20112;-74
2022/12/29 01:59:27;;;;;;;71.22;45.35;;;2.60;99.90;;;;;;5037155;28;20056;-73
2022/12/29 02:01:54;;;;;;;79.25;46.92;;;2.60;99.90;;;;;;5037103;28;20466;-73
2022/12/29 02:04:22;;;;;;;72.47;42.97;;;2.60;99.90;;;;;;5032940;28;20029;-74
2022/12/29 02:07:01;;;;;;;64.18;42.97;;;2.60;99.90;;;;;;5045323;28;20082;-74
2022/12/29 02:09:27;;;;;;;69.53;44.00;;;2.60;99.90;;;;;;5054946;28;20033;-73
2022/12/29 02:11:53;;;;;;;65.18;43.97;;;2.60;99.90;;;;;;5047190;28;20044;-72
2022/12/29 02:14:19;;;;;;;71.75;47.58;;;2.60;99.90;;;;;;5035153;28;20064;-74
2022/12/29 02:17:23;;;;;;;68.88;46.30;;;2.50;99.90;;;;;;5032668;28;20065;-74
2022/12/29 02:20:11;;;;;;;69.07;46.13;;;2.20;99.90;;;;;;5036718;28;20044;-74
2022/12/29 02:22:58;;;;;;;72.70;43.90;;;2.30;99.90;;;;;;5047673;28;20504;-73
2022/12/29 02:25:48;;;;;;;65.97;40.47;;;2.30;99.90;;;;;;5054616;28;20031;-73
2022/12/29 02:29:00;;;;;;;63.83;39.08;;;2.30;99.90;;;;;;5034799;28;20025;-73
2022/12/29 02:31:35;;;;;;;66.32;42.13;;;2.40;99.90;;;;;;4937966;29;20554;-72
2022/12/29 02:34:16;;;;;;;75.15;46.65;;;2.50;99.90;;;;;;4938406;29;20019;-73
2022/12/29 02:36:44;;;;;;;76.45;44.13;;;2.60;99.90;;;;;;4954492;29;20114;-73
2022/12/29 02:39:40;;;;;;;59.00;39.33;;;2.70;99.90;;;;;;4938349;29;20038;-74
2022/12/29 02:42:17;;;;;;;64.20;42.15;;;2.70;99.90;;;;;;4954450;29;20044;-73
2022/12/29 02:44:52;;;;;;;69.18;40.80;;;2.80;99.90;;;;;;4954353;29;20039;-73
2022/12/29 02:47:36;;;;;;;67.32;43.72;;;2.90;99.90;;;;;;4954308;29;20035;-73
2022/12/29 02:50:15;;;;;;;62.83;41.58;;;2.80;99.90;;;;;;4938003;29;20067;-74
2022/12/29 02:52:52;;;;;;;62.47;38.30;;;2.80;99.90;;;;;;4953937;29;20071;-73
2022/12/29 02:55:18;;;;;;;71.82;44.72;;;2.80;99.90;;;;;;4938216;29;20074;-74
2022/12/29 02:57:44;;;;;;;73.07;47.03;;;2.80;99.90;;;;;;4954088;29;20035;-73
2022/12/29 03:00:15;;;;;;;66.88;45.17;;;2.80;99.90;;;;;;4937973;29;20102;-74
2022/12/29 03:02:54;;;;;;;76.47;44.22;;;2.80;99.90;;;;;;4937608;28;20051;-73
2022/12/29 03:05:32;;;;;;;63.50;46.10;;;2.70;99.90;;;;;;4937685;29;20569;-74
2022/12/29 03:08:28;;;;;;;78.60;47.30;;;2.50;99.90;;;;;;4971945;28;20445;-72
2022/12/29 03:17:28;;;;;;;58.15;40.92;;;2.40;99.90;;;;;;5035756;28;20056;-73
2022/12/29 03:20:04;;;;;;;60.03;39.80;;;2.40;99.90;;;;;;5035601;28;20082;-72
2022/12/29 03:22:33;;;;;;;59.65;40.60;;;2.40;99.90;;;;;;5035541;28;20439;-72
2022/12/29 03:25:22;;;;;;;55.63;38.15;;;2.60;99.90;;;;;;5035767;28;20033;-71
2022/12/29 03:27:56;;;;;;;59.92;42.33;;;2.70;99.90;;;;;;5035641;28;20032;-72
2022/12/29 03:30:23;;;;;;;58.45;40.22;;;2.90;99.90;;;;;;5034814;28;20163;-71
2022/12/29 03:32:53;;;;;;;62.95;41.70;;;3.00;99.90;;;;;;5035039;28;20041;-72
2022/12/29 03:35:22;;;;;;;60.05;42.17;;;3.00;99.90;;;;;;5035308;28;20036;-72
2022/12/29 03:38:00;;;;;;;59.22;38.80;;;2.90;99.90;;;;;;5034646;28;20044;-73
2022/12/29 03:40:28;;;;;;;66.68;46.67;;;2.90;99.90;;;;;;5035350;28;20028;-74
2022/12/29 03:42:55;;;;;;;76.03;56.55;;;2.70;99.90;;;;;;5032941;28;20025;-74
2022/12/29 03:45:22;;;;;;;94.00;75.97;;;2.70;99.90;;;;;;5035112;28;20025;-72
2022/12/29 03:47:48;;;;;;;96.53;78.25;;;2.60;99.90;;;;;;5027629;28;20029;-72
2022/12/29 03:50:16;;;;;;;94.18;75.85;;;2.50;99.90;;;;;;5031243;28;20522;-74
2022/12/29 03:52:42;;;;;;;92.35;76.57;;;2.50;99.90;;;;;;5034781;28;20029;-73
2022/12/29 03:55:08;;;;;;;101.80;75.30;;;2.70;99.90;;;;;;5034820;28;20021;-73
2022/12/29 03:57:34;;;;;;;90.65;73.65;;;2.80;99.90;;;;;;5034610;28;20480;-72
2022/12/29 04:00:06;;;;;;;86.00;67.63;;;2.80;99.90;;;;;;5023901;28;20071;-73
2022/12/29 04:02:41;;;;;;;79.55;57.97;;;2.80;99.90;;;;;;5052880;28;20044;-72
2022/12/29 04:05:08;;;;;;;87.70;70.10;;;2.90;99.90;;;;;;5034722;28;20032;-73
2022/12/29 04:07:34;;;;;;;115.43;95.88;;;2.90;99.90;;;;;;5047826;28;20021;-72
2022/12/29 04:10:03;;;;;;;140.82;109.38;;;2.90;99.90;;;;;;5037047;28;20086;-73
2022/12/29 04:12:31;;;;;;;121.63;102.03;;;2.90;99.90;;;;;;5046701;28;20464;-72
2022/12/29 04:14:57;;;;;;;148.18;120.97;;;2.90;99.90;;;;;;5043104;28;20128;-73
2022/12/29 04:17:23;;;;;;;169.70;131.93;;;3.00;99.90;;;;;;5052268;28;20433;-73
2022/12/29 04:20:59;;;;;;;118.85;98.32;;;2.90;99.90;;;;;;5035035;28;20450;-72
2022/12/29 04:22:37;;;;;;;111.28;86.47;;;2.90;99.90;;;;;;5034638;28;20041;-75
2022/12/29 04:25:03;;;;;;;75.07;54.80;;;2.90;99.90;;;;;;5029097;28;20040;-72
2022/12/29 04:27:29;;;;;;;68.07;49.72;;;2.90;99.90;;;;;;5034855;28;20033;-72
2022/12/29 04:30:33;;;;;;;62.70;48.80;;;3.00;99.90;;;;;;4991354;28;20022;-73
2022/12/29 04:33:05;;;;;;;70.63;53.45;;;3.00;99.90;;;;;;4991362;28;20056;-74
2022/12/29 04:35:31;;;;;;;64.85;48.83;;;3.00;99.90;;;;;;4991288;28;20366;-73
2022/12/29 04:37:57;;;;;;;57.22;42.55;;;3.00;99.90;;;;;;4982660;28;20065;-73
2022/12/29 04:40:23;;;;;;;55.80;37.72;;;3.00;99.90;;;;;;4990796;28;20364;-73
2022/12/29 04:42:50;;;;;;;59.47;38.60;;;2.80;99.90;;;;;;4990960;28;20030;-74
2022/12/29 04:45:17;;;;;;;58.72;41.35;;;2.70;99.90;;;;;;4991090;28;20482;-74
2022/12/29 04:48:06;;;;;;;74.22;53.40;;;2.60;99.90;;;;;;4914025;29;20043;-73
2022/12/29 04:50:50;;;;;;;86.38;57.42;;;2.70;99.90;;;;;;4914554;29;20054;-74
2022/12/29 04:53:18;;;;;;;79.80;52.40;;;2.60;99.90;;;;;;4914514;29;20107;-75
2022/12/29 04:55:47;;;;;;;92.47;60.20;;;2.50;99.90;;;;;;4914336;29;20032;-74
2022/12/29 04:58:13;;;;;;;119.70;75.03;;;2.60;99.90;;;;;;4898236;29;20083;-74
2022/12/29 05:00:40;;;;;;;79.60;53.05;;;2.50;99.90;;;;;;4909096;29;20031;-73
2022/12/29 05:03:06;;;;;;;79.70;56.17;;;2.60;99.90;;;;;;4951214;28;20517;-74
2022/12/29 05:05:32;;;;;;;71.25;48.65;;;2.60;99.90;;;;;;4954849;28;20122;-73
2022/12/29 05:07:58;;;;;;;74.55;50.15;;;2.60;99.90;;;;;;4955251;28;20478;-74
2022/12/29 05:10:24;;;;;;;83.15;57.72;;;2.60;99.90;;;;;;4954726;28;20034;-75
2022/12/29 05:12:52;;;;;;;67.72;44.42;;;2.50;99.90;;;;;;4955330;28;20482;-74
2022/12/29 05:15:18;;;;;;;55.30;38.08;;;2.50;99.90;;;;;;4955237;28;20030;-74
2022/12/29 05:17:44;;;;;;;55.28;37.63;;;2.40;99.90;;;;;;4951906;28;20027;-74
2022/12/29 05:20:11;;;;;;;61.42;37.92;;;2.30;99.90;;;;;;4947962;28;20131;-75
2022/12/29 05:22:37;;;;;;;52.83;37.55;;;2.40;99.90;;;;;;4954990;28;20051;-74
2022/12/29 05:25:05;;;;;;;54.47;35.05;;;2.30;99.90;;;;;;4984728;28;20038;-74
2022/12/29 05:27:36;;;;;;;61.47;40.60;;;2.30;99.90;;;;;;5004237;28;20034;-72
2022/12/29 05:30:17;;;;;;;53.05;40.42;;;2.20;99.90;;;;;;5013539;28;20358;-73
2022/12/29 05:32:43;;;;;;;58.47;40.88;;;2.20;99.90;;;;;;5015221;28;20060;-73
2022/12/29 05:35:08;;;;;;;54.63;38.33;;;2.00;99.90;;;;;;5017649;28;20031;-74
2022/12/29 05:37:34;;;;;;;51.53;39.08;;;2.00;99.90;;;;;;5017577;28;20022;-74
2022/12/29 05:40:01;;;;;;;57.58;39.08;;;1.90;99.90;;;;;;5017473;28;20103;-74
2022/12/29 05:42:27;;;;;;;59.40;40.67;;;2.00;99.90;;;;;;5034863;28;20017;-75
2022/12/29 05:45:12;;;;;;;58.08;40.20;;;2.00;99.90;;;;;;5034271;28;20035;-75
2022/12/29 05:48:06;;;;;;;55.88;40.67;;;2.00;99.90;;;;;;4955123;28;20398;-74
2022/12/29 05:50:55;;;;;;;58.05;40.83;;;2.00;99.90;;;;;;4953035;28;20118;-73
2022/12/29 05:53:32;;;;;;;59.78;40.72;;;2.10;99.90;;;;;;4955103;28;20439;-74
2022/12/29 05:55:58;;;;;;;65.03;42.67;;;2.20;99.90;;;;;;4938721;28;20041;-73
2022/12/29 05:58:25;;;;;;;65.13;42.97;;;2.30;99.90;;;;;;4930791;29;20054;-73
2022/12/29 06:00:51;;;;;;;68.70;46.90;;;2.30;99.90;;;;;;4938454;28;20024;-74
2022/12/29 06:03:17;;;;;;;64.28;42.90;;;2.40;99.90;;;;;;4938887;29;20043;-75
2022/12/29 06:05:45;;;;;;;60.05;40.38;;;2.30;99.90;;;;;;4938986;29;20139;-73
2022/12/29 06:08:11;;;;;;;56.35;38.15;;;2.30;99.90;;;;;;4938704;29;20121;-73
2022/12/29 06:10:37;;;;;;;71.93;47.42;;;2.30;99.90;;;;;;4938700;28;20035;-73
2022/12/29 06:13:05;;;;;;;61.45;40.58;;;2.30;99.90;;;;;;4939121;29;20127;-75
2022/12/29 06:15:35;;;;;;;115.85;72.78;;;2.40;99.90;;;;;;4938685;29;20061;-74
2022/12/29 06:18:02;;;;;;;152.80;95.80;;;2.40;99.90;;;;;;4938637;29;20047;-74
2022/12/29 06:20:28;;;;;;;84.38;54.90;;;2.50;99.90;;;;;;4969227;28;20034;-76
2022/12/29 06:22:54;;;;;;;112.78;70.30;;;2.50;99.90;;;;;;4976498;28;20565;-74
2022/12/29 06:25:20;;;;;;;150.10;89.60;;;2.50;99.90;;;;;;5009197;28;20094;-74
2022/12/29 06:27:46;;;;;;;166.02;109.82;;;2.50;99.90;;;;;;5033266;28;20112;-74
2022/12/29 06:30:12;;;;;;;148.50;95.88;;;2.50;99.90;;;;;;5034848;28;20424;-73
2022/12/29 06:32:40;;;;;;;128.82;80.25;;;2.60;99.90;;;;;;5016824;28;20109;-73
2022/12/29 06:35:08;;;;;;;120.93;77.18;;;2.60;99.90;;;;;;5016511;28;20025;-73
2022/12/29 06:37:39;;;;;;;92.93;61.88;;;2.50;99.90;;;;;;5014900;28;20037;-74
2022/12/29 06:40:06;;;;;;;94.03;58.92;;;2.60;99.90;;;;;;5033820;28;20025;-74
2022/12/29 06:42:47;;;;;;;99.60;64.30;;;2.60;99.90;;;;;;5005929;28;20535;-73
2022/12/29 06:45:33;;;;;;;102.13;61.08;;;2.60;99.90;;;;;;5034053;28;20038;-73
2022/12/29 06:47:58;;;;;;;80.78;50.95;;;2.60;99.90;;;;;;5033990;28;20029;-74
2022/12/29 06:50:24;;;;;;;85.28;57.38;;;2.70;99.90;;;;;;5033728;28;20033;-73
2022/12/29 06:52:50;;;;;;;93.18;61.90;;;2.70;99.90;;;;;;5033975;28;20385;-74
2022/12/29 06:55:16;;;;;;;92.32;62.70;;;2.70;99.90;;;;;;5034056;28;20034;-73
2022/12/29 06:57:42;;;;;;;90.53;58.45;;;2.80;99.90;;;;;;5016525;28;20558;-73
2022/12/29 07:00:08;;;;;;;89.90;66.47;;;2.80;99.90;;;;;;5033954;28;20045;-75
2022/12/29 07:02:34;;;;;;;99.93;67.10;;;2.90;99.90;;;;;;5033910;28;20033;-74
2022/12/29 07:05:00;;;;;;;90.85;63.53;;;3.00;99.90;;;;;;5034149;28;20025;-75
2022/12/29 07:07:25;;;;;;;81.70;55.80;;;3.00;99.90;;;;;;5034197;28;20125;-76
2022/12/29 07:09:51;;;;;;;70.32;48.38;;;3.10;99.90;;;;;;5033807;28;20021;-75
2022/12/29 07:12:17;;;;;;;83.97;57.60;;;3.10;99.90;;;;;;5033545;28;20029;-75
2022/12/29 07:14:43;;;;;;;74.10;54.05;;;3.20;99.90;;;;;;5033579;28;20096;-74
2022/12/29 07:17:09;;;;;;;62.63;43.22;;;3.30;99.90;;;;;;5032164;28;20052;-74
2022/12/29 07:19:34;;;;;;;63.70;44.35;;;3.40;99.90;;;;;;5033652;28;20045;-74
2022/12/29 07:22:01;;;;;;;65.95;44.33;;;3.50;99.90;;;;;;5044898;28;20440;-74
2022/12/29 07:24:27;;;;;;;60.00;41.75;;;3.60;99.90;;;;;;5052294;28;20037;-74
2022/12/29 07:26:52;;;;;;;70.05;58.40;;;3.70;99.90;;;;;;5053315;28;20036;-74
2022/12/29 07:29:18;;;;;;;66.95;43.00;;;3.90;99.90;;;;;;5053305;28;20496;-75
2022/12/29 07:31:44;;;;;;;63.88;41.90;;;4.00;99.90;;;;;;5053065;28;20120;-75
2022/12/29 07:34:10;;;;;;;63.42;43.03;;;4.10;99.90;;;;;;5052897;28;20025;-75
2022/12/29 07:36:36;;;;;;;59.63;38.75;;;4.10;99.90;;;;;;5053148;28;20381;-75
2022/12/29 07:39:03;;;;;;;61.00;41.97;;;4.10;99.90;;;;;;5053112;28;20512;-75
2022/12/29 07:41:29;;;;;;;60.47;40.80;;;4.20;99.90;;;;;;5034759;28;20432;-75
2022/12/29 07:43:54;;;;;;;69.82;43.28;;;4.10;99.90;;;;;;5052929;28;20115;-74
2022/12/29 07:46:39;;;;;;;63.47;46.70;;;4.30;99.90;;;;;;5050259;28;20385;-75
2022/12/29 07:49:05;;;;;;;61.97;44.63;;;4.30;99.90;;;;;;5053035;28;20032;-75
2022/12/29 07:51:31;;;;;;;65.63;46.97;;;4.30;99.90;;;;;;5048637;28;20018;-75
2022/12/29 07:54:00;;;;;;;67.85;45.63;;;4.30;99.90;;;;;;5039577;28;20016;-74
2022/12/29 07:56:25;;;;;;;71.28;46.67;;;4.50;99.90;;;;;;5052688;28;20408;-75
2022/12/29 07:58:51;;;;;;;73.88;50.78;;;4.60;99.90;;;;;;5053101;28;20488;-74
2022/12/29 08:01:17;;;;;;;76.65;51.85;;;4.60;99.90;;;;;;5052459;28;20036;-74
2022/12/29 08:03:43;;;;;;;90.22;53.10;;;4.60;99.90;;;;;;5049388;28;20033;-75
2022/12/29 08:06:10;;;;;;;78.53;50.63;;;4.70;99.90;;;;;;5053094;28;20025;-74
2022/12/29 08:08:36;;;;;;;85.43;55.70;;;4.80;99.90;;;;;;5051955;28;20043;-74
2022/12/29 08:11:02;;;;;;;74.68;54.60;;;4.90;99.90;;;;;;5050797;28;20025;-75
2022/12/29 08:13:28;;;;;;;87.32;53.67;;;5.10;99.90;;;;;;5052725;28;20051;-74
2022/12/29 08:15:53;;;;;;;84.03;51.97;;;5.20;99.90;;;;;;5052427;28;20053;-74
2022/12/29 08:18:19;;;;;;;87.05;57.60;;;5.20;99.90;;;;;;5042033;28;20037;-74
2022/12/29 08:20:45;;;;;;;85.53;53.95;;;5.40;99.90;;;;;;5049759;28;20056;-74
2022/12/29 08:23:11;;;;;;;76.30;53.28;;;5.50;99.90;;;;;;5050956;28;20033;-74
2022/12/29 08:25:36;;;;;;;77.90;53.35;;;5.60;99.90;;;;;;5052459;28;20025;-75
2022/12/29 08:28:02;;;;;;;86.28;52.60;;;5.60;99.90;;;;;;5052246;28;20044;-74
2022/12/29 08:30:28;;;;;;;83.22;52.70;;;5.80;99.90;;;;;;5052839;28;20028;-74
2022/12/29 08:32:54;;;;;;;74.35;50.22;;;6.10;99.90;;;;;;5052204;28;20040;-75
2022/12/29 08:35:20;;;;;;;80.88;49.53;;;6.30;99.90;;;;;;5052083;28;20353;-75
2022/12/29 08:37:45;;;;;;;74.93;47.58;;;6.60;99.90;;;;;;5050328;28;20029;-74
2022/12/29 08:40:11;;;;;;;73.47;46.90;;;6.70;99.90;;;;;;5051962;28;20159;-74
2022/12/29 08:42:37;;;;;;;76.15;46.28;;;6.80;99.90;;;;;;5052074;28;20028;-74
2022/12/29 08:45:03;;;;;;;76.60;46.50;;;7.00;99.90;;;;;;5050720;28;20484;-75
2022/12/29 08:47:29;;;;;;;73.47;48.20;;;7.10;99.90;;;;;;5047734;28;20163;-75
2022/12/29 08:49:55;;;;;;;62.92;43.25;;;7.20;99.90;;;;;;5049964;28;20100;-76
2022/12/29 08:52:21;;;;;;;68.07;42.78;;;7.30;99.90;;;;;;5052038;28;20025;-75
2022/12/29 08:54:47;;;;;;;50.40;35.35;;;7.60;99.90;;;;;;5052562;28;20025;-74
2022/12/29 08:57:13;;;;;;;65.18;39.13;;;7.50;99.90;;;;;;5035037;28;20025;-75
2022/12/29 08:59:50;;;;;;;56.42;37.72;;;7.80;99.90;;;;;;5034619;28;20035;-75
2022/12/29 09:02:17;;;;;;;65.55;44.00;;;8.00;99.90;;;;;;5032395;28;20116;-75
2022/12/29 09:04:42;;;;;;;61.08;40.80;;;8.10;99.90;;;;;;5054447;28;20104;-76
2022/12/29 09:07:08;;;;;;;58.00;39.35;;;8.30;99.90;;;;;;5054778;28;20033;-76
2022/12/29 09:09:34;;;;;;;61.30;40.30;;;8.50;99.90;;;;;;5049603;28;20029;-77
2022/12/29 09:12:00;;;;;;;58.90;38.70;;;8.60;99.90;;;;;;5054523;28;20031;-76
2022/12/29 09:14:26;;;;;;;53.85;37.50;;;8.80;99.90;;;;;;5054593;28;20043;-75
2022/12/29 09:19:37;;;;;;;77.38;42.30;;;9.20;99.90;;;;;;5044054;28;20377;-73
2022/12/29 09:22:02;;;;;;;59.38;40.60;;;9.20;99.90;;;;;;5055518;28;20072;-75
2022/12/29 09:24:28;;;;;;;60.13;39.08;;;9.30;99.90;;;;;;5050906;28;20028;-75
2022/12/29 09:26:54;;;;;;;61.63;38.35;;;9.30;99.90;;;;;;5042390;28;20021;-75
2022/12/29 09:29:20;;;;;;;64.30;40.60;;;9.40;99.90;;;;;;5048522;28;20396;-74
2022/12/29 09:31:46;;;;;;;57.78;37.42;;;9.50;99.90;;;;;;5042534;28;20033;-76
2022/12/29 09:34:12;;;;;;;59.55;37.67;;;9.60;99.90;;;;;;5048612;28;20112;-76
2022/12/29 09:36:37;;;;;;;50.90;33.92;;;9.70;99.90;;;;;;5055668;28;20025;-75
2022/12/29 09:39:03;;;;;;;55.40;34.47;;;9.80;99.90;;;;;;5047260;28;20041;-75
2022/12/29 09:41:49;;;;;;;50.13;31.52;;;9.90;99.90;;;;;;5044005;28;20025;-74
2022/12/29 09:44:18;;;;;;;47.75;31.45;;;10.00;99.90;;;;;;5041577;28;20025;-77
2022/12/29 09:46:50;;;;;;;47.22;32.50;;;10.20;99.90;;;;;;5052469;28;20021;-75
2022/12/29 09:49:16;;;;;;;;;;;10.40;99.90;;;;;;5049390;28;20060;-74
2022/12/29 09:51:47;;;;;;;46.67;30.33;;;10.50;99.90;;;;;;5055472;28;20380;-76
2022/12/29 09:54:43;;;;;;;49.03;31.23;;;10.70;99.90;;;;;;5055002;28;20033;-74
2022/12/29 09:57:34;;;;;;;46.67;31.88;;;10.80;99.90;;;;;;5043252;28;20037;-74
2022/12/29 10:00:21;;;;;;;47.30;31.55;;;10.90;99.90;;;;;;5043258;28;20044;-76
2022/12/29 10:02:58;;;;;;;42.45;27.48;;;11.00;99.90;;;;;;5039917;28;20111;-76
2022/12/29 10:05:45;;;;;;;34.35;25.55;;;11.10;99.90;;;;;;5050213;28;20033;-76
2022/12/29 10:08:19;;;;;;;50.40;32.90;;;11.30;99.90;;;;;;5041881;28;20045;-75
2022/12/29 10:10:56;;;;;;;51.97;33.75;;;11.50;99.90;;;;;;5040571;28;20068;-75
2022/12/29 10:13:28;;;;;;;50.92;32.00;;;11.70;99.90;;;;;;5045219;28;20025;-74
2022/12/29 10:16:23;;;;;;;40.30;28.42;;;11.80;99.90;;;;;;5050957;28;20033;-75
2022/12/29 10:18:52;;;;;;;41.42;25.63;;;12.00;99.90;;;;;;5054782;28;20091;-74
2022/12/29 10:21:56;;;;;;;37.20;24.73;;;11.90;99.90;;;;;;5054817;28;20488;-74
2022/12/29 10:24:22;;;;;;;39.22;23.90;;;11.90;99.90;;;;;;5054199;28;20025;-74
2022/12/29 10:26:51;;;;;;;34.80;21.45;;;12.10;99.90;;;;;;5053423;28;20025;-74
2022/12/29 10:29:27;;;;;;;36.80;23.80;;;12.20;99.90;;;;;;5054245;28;20029;-73
2022/12/29 10:32:00;;;;;;;38.78;25.48;;;12.40;99.90;;;;;;5054187;28;20606;-75
2022/12/29 10:34:33;;;;;;;38.33;22.58;;;12.50;99.90;;;;;;5049384;28;20029;-73
2022/12/29 10:37:43;;;;;;;32.60;22.00;;;12.60;99.90;;;;;;5048011;28;20025;-74
2022/12/29 10:40:33;;;;;;;32.90;22.25;;;12.70;99.90;;;;;;5035982;28;20043;-75
2022/12/29 10:42:59;;;;;;;35.83;23.27;;;12.90;99.90;;;;;;5051768;28;20025;-73
2022/12/29 10:45:30;;;;;;;29.92;18.00;;;13.00;99.90;;;;;;5041905;28;20026;-74
2022/12/29 10:48:03;;;;;;;27.27;16.90;;;13.20;99.90;;;;;;5024610;28;20171;-74
2022/12/29 10:50:31;;;;;;;;;;;13.40;99.90;;;;;;5054296;28;20550;-74
2022/12/29 10:53:04;;;;;;;35.53;18.00;;;13.60;99.90;;;;;;5053786;28;19921;-75
2022/12/29 10:55:37;;;;;;;31.42;17.95;;;13.80;99.90;;;;;;5022882;28;20048;-75
2022/12/29 10:58:11;;;;;;;39.40;23.13;;;13.90;99.90;;;;;;5048859;28;20041;-74
2022/12/29 11:00:37;;;;;;;29.98;19.02;;;14.10;99.90;;;;;;5037318;28;20025;-76
2022/12/29 11:03:35;;;;;;;24.35;16.15;;;14.20;99.90;;;;;;5052351;28;20036;-74
2022/12/29 11:06:15;;;;;;;18.95;9.93;;;14.20;99.90;;;;;;4953654;29;20047;-74
2022/12/29 11:08:51;;;;;;;25.10;11.93;;;14.20;99.90;;;;;;4953677;29;20035;-74
2022/12/29 11:11:27;;;;;;;26.25;15.40;;;14.30;99.90;;;;;;4953572;29;20118;-75
2022/12/29 11:14:17;;;;;;;28.90;16.83;;;14.20;99.90;;;;;;4952525;29;20059;-73
2022/12/29 11:16:44;;;;;;;26.73;14.65;;;14.10;99.90;;;;;;4950875;29;20078;-74
2022/12/29 11:19:24;;;;;;;24.52;15.15;;;14.20;99.90;;;;;;4952884;29;20083;-73
2022/12/29 11:21:51;;;;;;;18.17;11.27;;;14.10;99.90;;;;;;4951650;29;20078;-73
2022/12/29 11:24:27;;;;;;;23.05;12.20;;;14.10;99.90;;;;;;4953343;28;20037;-75
2022/12/29 11:27:14;;;;;;;22.55;12.95;;;14.10;99.90;;;;;;4935880;29;20430;-72
2022/12/29 11:29:42;;;;;;;23.23;12.20;;;14.10;99.90;;;;;;4951789;28;20054;-72
2022/12/29 11:32:24;;;;;;;26.83;12.20;;;14.30;99.90;;;;;;4947359;28;20048;-73
2022/12/29 11:34:51;;;;;;;19.40;10.93;;;14.50;99.90;;;;;;4953275;28;20054;-73
2022/12/29 11:37:18;;;;;;;21.92;11.27;;;14.60;99.90;;;;;;4953069;28;20031;-72
2022/12/29 11:40:05;;;;;;;21.10;11.23;;;14.50;99.90;;;;;;4952060;28;20464;-73
2022/12/29 11:42:36;;;;;;;20.58;10.82;;;14.50;99.90;;;;;;5015688;28;20512;-72
2022/12/29 11:45:14;;;;;;;18.58;10.25;;;14.50;99.90;;;;;;5029499;28;20420;-73
2022/12/29 11:47:44;;;;;;;20.02;10.10;;;14.50;99.90;;;;;;5032764;28;20026;-73
2022/12/29 11:50:19;;;;;;;19.75;9.10;;;14.50;99.90;;;;;;5033116;28;20388;-74
2022/12/29 11:52:45;;;;;;;21.85;10.43;;;14.60;99.90;;;;;;5017645;28;20018;-75
2022/12/29 11:55:23;;;;;;;22.75;12.45;;;14.60;99.90;;;;;;5032257;28;20026;-72
2022/12/29 11:57:52;;;;;;;22.55;11.02;;;14.60;99.90;;;;;;5033212;28;20465;-72
2022/12/29 12:00:20;;;;;;;16.60;10.32;;;14.60;99.90;;;;;;5033154;28;20428;-72
2022/12/29 12:02:59;;;;;;;23.33;12.45;;;14.60;99.90;;;;;;5026632;28;20517;-73
2022/12/29 12:05:36;;;;;;;27.30;13.00;;;14.70;99.90;;;;;;5028595;28;20080;-75
2022/12/29 12:08:11;;;;;;;28.90;15.80;;;14.70;99.90;;;;;;5033024;28;20044;-73
2022/12/29 12:10:48;;;;;;;24.83;11.80;;;14.80;99.90;;;;;;5033258;28;20381;-73
2022/12/29 12:13:24;;;;;;;18.85;10.75;;;14.80;99.90;;;;;;5011994;28;20037;-73
2022/12/29 12:15:57;;;;;;;12.75;7.30;;;14.70;99.90;;;;;;5003462;28;20033;-73
2022/12/29 12:18:51;;;;;;;19.73;10.73;;;14.60;99.90;;;;;;5013916;28;20508;-73
2022/12/29 12:21:39;;;;;;;17.63;8.70;;;14.40;99.90;;;;;;5039214;28;20455;-73
2022/12/29 12:24:24;;;;;;;20.90;12.23;;;14.40;99.90;;;;;;5052750;28;20392;-72
2022/12/29 12:26:58;;;;;;;27.00;13.05;;;14.40;99.90;;;;;;5052350;28;20083;-73
2022/12/29 12:29:35;;;;;;;21.73;12.07;;;14.50;99.90;;;;;;5052962;28;20072;-72
2022/12/29 12:32:21;;;;;;;23.95;11.75;;;14.40;99.90;;;;;;5052776;28;20033;-73
2022/12/29 12:34:48;;;;;;;22.73;10.38;;;14.50;99.90;;;;;;5052726;28;20028;-72
2022/12/29 12:37:14;;;;;;;24.92;13.55;;;14.50;99.90;;;;;;5055044;28;20021;-73
2022/12/29 12:40:14;;;;;;;45.00;27.17;;;14.40;99.90;;;;;;5056464;28;20037;-73
2022/12/29 12:43:01;;;;;;;30.00;16.23;;;14.30;99.90;;;;;;5056580;28;20053;-73
2022/12/29 12:45:32;;;;;;;28.48;16.17;;;14.10;99.90;;;;;;5044621;28;20107;-73
2022/12/29 12:48:53;;;;;;;20.70;11.38;;;14.00;99.90;;;;;;5056567;28;20494;-73
2022/12/29 12:51:47;;;;;;;24.00;15.30;;;13.90;99.90;;;;;;4955940;29;20056;-72
2022/12/29 12:54:28;;;;;;;26.65;15.40;;;13.80;99.90;;;;;;4956187;29;20046;-73
2022/12/29 12:57:36;;;;;;;29.05;19.15;;;13.80;99.90;;;;;;4956345;29;20098;-73
2022/12/29 13:00:19;;;;;;;34.58;19.80;;;13.80;99.90;;;;;;4956480;29;20042;-72
2022/12/29 13:02:51;;;;;;;32.80;19.50;;;13.70;99.90;;;;;;4955966;29;20202;-73
2022/12/29 13:05:24;;;;;;;40.50;28.47;;;13.70;99.90;;;;;;4956281;29;20054;-73
2022/12/29 13:08:17;;;;;;;31.17;19.52;;;13.70;99.90;;;;;;4955928;29;20023;-72
2022/12/29 13:11:04;;;;;;;55.00;36.30;;;13.80;99.90;;;;;;4940012;29;20090;-73
2022/12/29 13:13:58;;;;;;;46.67;30.10;;;13.80;99.90;;;;;;4956257;29;20182;-75
2022/12/29 13:16:49;;;;;;;42.10;24.88;;;13.70;99.90;;;;;;4956039;29;20040;-73
2022/12/29 13:19:21;;;;;;;38.83;27.20;;;13.80;99.90;;;;;;4955510;29;20448;-73
2022/12/29 13:22:06;;;;;;;31.00;17.08;;;13.80;99.90;;;;;;4979133;28;20045;-73
2022/12/29 13:25:20;;;;;;;29.23;16.45;;;13.80;99.90;;;;;;5024901;28;20025;-73
2022/12/29 13:28:00;;;;;;;34.20;18.23;;;13.80;99.90;;;;;;4955611;28;20126;-73
2022/12/29 13:30:32;;;;;;;32.75;16.88;;;13.70;99.90;;;;;;4955286;28;20476;-73
2022/12/29 13:33:34;;;;;;;32.58;17.52;;;13.70;99.90;;;;;;4955530;28;20150;-73
2022/12/29 13:36:04;;;;;;;34.00;17.92;;;13.70;99.90;;;;;;4955665;28;20049;-73